createdAt,value
2023-05-08T00:00:47.556Z,71.66
2023-05-08T00:03:14.335Z,71.56
2023-05-08T00:05:44.067Z,71.27
2023-05-08T00:08:10.742Z,70.92
2023-05-08T00:10:37.321Z,71.07
2023-05-08T00:13:04.186Z,71.00
2023-05-08T00:15:30.921Z,71.07
2023-05-08T00:17:57.596Z,71.32
2023-05-08T00:20:24.454Z,71.31
2023-05-08T00:22:51.041Z,71.42
2023-05-08T00:25:17.780Z,71.21
2023-05-08T00:27:44.400Z,71.15
2023-05-08T00:30:11.657Z,71.04
2023-05-08T00:32:38.563Z,71.03
2023-05-08T00:35:06.084Z,71.16
2023-05-08T00:37:32.697Z,71.13
2023-05-08T00:39:59.329Z,71.12
2023-05-08T00:42:26.008Z,70.77
2023-05-08T00:44:52.601Z,70.74
2023-05-08T00:47:22.561Z,70.62
2023-05-08T00:49:49.849Z,70.45
2023-05-08T00:52:17.874Z,70.32
2023-05-08T00:54:45.236Z,70.51
2023-05-08T00:57:12.597Z,70.63
2023-05-08T00:59:41.597Z,70.72
2023-05-08T01:02:09.967Z,70.89
2023-05-08T01:04:37.226Z,71.01
2023-05-08T01:07:03.879Z,70.95
2023-05-08T01:09:30.547Z,70.93
2023-05-08T01:12:40.756Z,70.73
2023-05-08T01:15:24.054Z,70.61
2023-05-08T01:18:28.112Z,70.41
2023-05-08T01:21:07.089Z,70.57
2023-05-08T01:24:12.084Z,70.83
2023-05-08T01:27:00.600Z,70.79
2023-05-08T01:30:08.912Z,70.64
2023-05-08T01:32:43.794Z,70.57
2023-05-08T01:35:40.755Z,70.45
2023-05-08T01:38:13.176Z,70.18
2023-05-08T01:41:01.626Z,70.36
2023-05-08T01:43:42.453Z,70.52
2023-05-08T01:46:14.820Z,70.40
2023-05-08T01:48:50.757Z,70.35
2023-05-08T01:51:21.822Z,70.19
2023-05-08T01:53:58.608Z,70.06
2023-05-08T01:56:28.649Z,69.90
2023-05-08T01:58:58.171Z,69.95
2023-05-08T02:01:26.358Z,69.84
2023-05-08T02:03:56.663Z,69.92
2023-05-08T02:06:26.887Z,69.72
2023-05-08T02:08:55.448Z,69.08
2023-05-08T02:11:25.037Z,68.56
2023-05-08T02:13:54.007Z,68.15
2023-05-08T02:16:22.169Z,67.99
2023-05-08T02:18:53.194Z,68.15
2023-05-08T02:21:22.408Z,68.22
2023-05-08T02:23:51.196Z,68.03
2023-05-08T02:26:19.357Z,68.37
2023-05-08T02:28:47.270Z,68.74
2023-05-08T02:31:14.533Z,68.98
2023-05-08T02:33:42.662Z,68.79
2023-05-08T02:36:13.244Z,68.81
2023-05-08T02:38:44.182Z,68.51
2023-05-08T02:41:14.311Z,68.59
2023-05-08T02:43:42.243Z,68.55
2023-05-08T02:46:39.681Z,68.48
2023-05-08T02:49:26.837Z,68.77
2023-05-08T02:52:00.062Z,68.98
2023-05-08T02:54:44.415Z,69.02
2023-05-08T02:57:22.155Z,68.98
2023-05-08T02:59:59.616Z,69.05
2023-05-08T03:02:28.072Z,69.05
2023-05-08T03:04:59.588Z,69.13
2023-05-08T03:07:29.076Z,69.41
2023-05-08T03:10:03.071Z,69.30
2023-05-08T03:12:32.854Z,69.81
2023-05-08T03:15:24.127Z,69.80
2023-05-08T03:17:54.965Z,69.79
2023-05-08T03:20:24.998Z,69.83
2023-05-08T03:22:55.523Z,69.85
2023-05-08T03:25:23.317Z,69.95
2023-05-08T03:27:52.097Z,70.07
2023-05-08T03:30:20.681Z,70.12
2023-05-08T03:32:58.828Z,70.40
2023-05-08T03:35:27.261Z,70.55
2023-05-08T03:37:54.926Z,70.76
2023-05-08T03:40:21.902Z,70.84
2023-05-08T03:42:49.969Z,71.21
2023-05-08T03:45:18.938Z,71.40
2023-05-08T03:47:47.777Z,71.19
2023-05-08T03:50:15.841Z,71.33
2023-05-08T03:52:43.449Z,71.01
2023-05-08T03:55:10.449Z,71.02
2023-05-08T03:57:49.248Z,70.85
2023-05-08T04:00:29.303Z,70.93
2023-05-08T04:03:05.333Z,71.24
2023-05-08T04:05:37.851Z,71.75
2023-05-08T04:08:29.129Z,72.01
2023-05-08T04:11:10.067Z,72.27
2023-05-08T04:13:46.019Z,72.71
2023-05-08T04:16:20.214Z,72.76
2023-05-08T04:18:49.755Z,72.59
2023-05-08T04:21:23.175Z,72.69
2023-05-08T04:23:51.582Z,72.68
2023-05-08T04:26:19.571Z,73.24
2023-05-08T04:28:47.494Z,73.48
2023-05-08T04:31:16.558Z,73.50
2023-05-08T04:33:45.146Z,73.94
2023-05-08T04:36:13.686Z,74.24
2023-05-08T04:38:41.613Z,74.43
2023-05-08T04:41:08.708Z,74.52
2023-05-08T04:43:38.582Z,74.50
2023-05-08T04:46:06.479Z,74.29
2023-05-08T04:48:34.078Z,74.21
2023-05-08T04:51:01.184Z,74.28
2023-05-08T04:53:28.279Z,74.09
2023-05-08T04:55:55.030Z,74.03
2023-05-08T04:58:22.062Z,73.99
2023-05-08T05:00:49.112Z,74.03
2023-05-08T05:03:15.914Z,74.00
2023-05-08T05:05:42.824Z,73.99
2023-05-08T05:08:09.664Z,74.14
2023-05-08T05:10:39.610Z,74.13
2023-05-08T05:13:06.436Z,74.17
2023-05-08T05:15:33.179Z,74.12
2023-05-08T05:18:00.114Z,74.20
2023-05-08T05:20:27.011Z,74.15
2023-05-08T05:22:53.703Z,73.98
2023-05-08T05:25:20.390Z,74.05
2023-05-08T05:27:47.187Z,74.08
2023-05-08T05:30:14.259Z,74.15
2023-05-08T05:32:41.585Z,74.37
2023-05-08T05:35:09.939Z,74.35
2023-05-08T05:37:37.280Z,74.35
2023-05-08T05:40:04.511Z,74.32
2023-05-08T05:42:31.660Z,74.44
2023-05-08T05:44:59.130Z,74.31
2023-05-08T05:47:25.951Z,74.29
2023-05-08T05:49:52.681Z,74.20
2023-05-08T05:52:19.507Z,74.05
2023-05-08T05:54:46.804Z,73.77
2023-05-08T05:57:14.141Z,73.62
2023-05-08T05:59:41.588Z,73.53
2023-05-08T06:02:10.622Z,73.45
2023-05-08T06:04:38.127Z,73.67
2023-05-08T06:07:07.002Z,73.45
2023-05-08T06:09:33.709Z,73.44
2023-05-08T06:12:00.618Z,73.29
2023-05-08T06:14:27.269Z,73.32
2023-05-08T06:16:53.967Z,73.38
2023-05-08T06:19:20.686Z,73.20
2023-05-08T06:21:47.255Z,73.36
2023-05-08T06:24:13.890Z,73.35
2023-05-08T06:26:40.546Z,73.34
2023-05-08T06:29:07.189Z,73.40
2023-05-08T06:31:33.857Z,73.47
2023-05-08T06:34:00.525Z,73.80
2023-05-08T06:36:27.366Z,73.70
2023-05-08T06:38:54.081Z,73.61
2023-05-08T06:41:21.959Z,73.70
2023-05-08T06:43:48.641Z,73.45
2023-05-08T06:46:16.234Z,73.20
2023-05-08T06:48:42.883Z,72.86
2023-05-08T06:51:09.453Z,73.00
2023-05-08T06:53:36.099Z,73.17
2023-05-08T06:56:02.696Z,73.53
2023-05-08T06:58:31.475Z,73.42
2023-05-08T07:01:01.882Z,73.58
2023-05-08T07:03:28.600Z,73.90
2023-05-08T07:05:55.829Z,73.84
2023-05-08T07:08:22.556Z,73.77
2023-05-08T07:10:49.404Z,73.59
2023-05-08T07:13:20.219Z,73.76
2023-05-08T07:15:47.169Z,74.00
2023-05-08T07:18:14.302Z,74.20
2023-05-08T07:20:41.024Z,74.25
2023-05-08T07:23:07.802Z,74.57
2023-05-08T07:25:34.418Z,74.44
2023-05-08T07:28:01.426Z,74.59
2023-05-08T07:30:28.376Z,74.50
2023-05-08T07:32:55.044Z,74.53
2023-05-08T07:35:22.253Z,74.54
2023-05-08T07:37:48.940Z,74.74
2023-05-08T07:40:15.925Z,74.80
2023-05-08T07:42:43.850Z,74.91
2023-05-08T07:45:13.270Z,75.20
2023-05-08T07:47:50.191Z,74.96
2023-05-08T07:50:17.766Z,75.15
2023-05-08T07:52:45.929Z,75.07
2023-05-08T07:55:14.364Z,75.01
2023-05-08T07:57:43.650Z,75.20
2023-05-08T08:00:13.922Z,74.92
2023-05-08T08:02:41.760Z,74.54
2023-05-08T08:05:09.166Z,74.35
2023-05-08T08:07:36.010Z,74.26
2023-05-08T08:10:04.615Z,74.13
2023-05-08T08:12:32.099Z,74.13
2023-05-08T08:14:58.826Z,74.19
2023-05-08T08:17:28.473Z,74.01
2023-05-08T08:19:56.585Z,74.09
2023-05-08T08:22:24.565Z,74.38
2023-05-08T08:24:53.345Z,74.71
2023-05-08T08:27:21.821Z,74.75
2023-05-08T08:29:48.479Z,74.57
2023-05-08T08:32:15.080Z,74.42
2023-05-08T08:34:41.649Z,74.37
2023-05-08T08:37:08.317Z,74.04
2023-05-08T08:39:35.055Z,74.22
2023-05-08T08:42:02.057Z,74.09
2023-05-08T08:44:28.710Z,74.34
2023-05-08T08:47:00.123Z,74.45
2023-05-08T08:49:32.139Z,74.41
2023-05-08T08:52:03.540Z,74.15
2023-05-08T08:54:34.967Z,73.81
2023-05-08T08:57:08.091Z,73.41
2023-05-08T08:59:38.764Z,73.20
2023-05-08T09:02:15.089Z,72.86
2023-05-08T09:04:41.816Z,72.94
2023-05-08T09:07:10.198Z,73.06
2023-05-08T09:09:40.996Z,73.24
2023-05-08T09:12:07.990Z,73.39
2023-05-08T09:14:34.722Z,73.25
2023-05-08T09:17:01.795Z,72.90
2023-05-08T09:19:29.201Z,73.01
2023-05-08T09:22:00.709Z,72.69
2023-05-08T09:25:00.456Z,72.78
2023-05-08T09:27:28.878Z,72.86
2023-05-08T09:30:08.785Z,72.88
2023-05-08T09:32:38.054Z,72.81
2023-05-08T09:35:06.903Z,72.87
2023-05-08T09:37:34.058Z,73.08
2023-05-08T09:40:21.425Z,73.08
2023-05-08T09:42:50.230Z,73.23
2023-05-08T09:45:32.441Z,72.69
2023-05-08T09:47:59.499Z,72.60
2023-05-08T09:50:27.779Z,72.68
2023-05-08T09:52:55.029Z,72.67
2023-05-08T09:55:21.679Z,72.62
2023-05-08T09:57:59.744Z,72.21
2023-05-08T10:00:28.007Z,71.94
2023-05-08T10:03:02.302Z,71.31
2023-05-08T10:05:33.043Z,71.10
2023-05-08T10:08:19.023Z,70.85
2023-05-08T10:10:46.033Z,70.61
2023-05-08T10:13:13.726Z,70.80
2023-05-08T10:15:42.609Z,70.98
2023-05-08T10:18:12.024Z,70.29
2023-05-08T10:20:45.212Z,69.31
2023-05-08T10:23:17.153Z,69.15
2023-05-08T10:25:46.518Z,68.45
2023-05-08T10:28:45.402Z,67.96
2023-05-08T10:31:17.597Z,67.42
2023-05-08T10:33:46.866Z,67.12
2023-05-08T10:36:14.977Z,67.09
2023-05-08T10:38:42.294Z,66.34
2023-05-08T10:41:10.979Z,65.65
2023-05-08T10:43:42.549Z,65.47
2023-05-08T10:46:54.554Z,65.07
2023-05-08T10:49:34.336Z,63.05
2023-05-08T10:52:14.061Z,62.46
2023-05-08T10:55:02.275Z,62.00
2023-05-08T10:57:29.127Z,62.26
2023-05-08T10:59:55.865Z,61.91
2023-05-08T11:02:37.184Z,60.68
2023-05-08T11:05:17.818Z,60.19
2023-05-08T11:07:54.807Z,59.64
2023-05-08T11:10:22.156Z,58.62
2023-05-08T11:12:53.562Z,56.89
2023-05-08T11:15:36.497Z,56.45
2023-05-08T11:18:11.781Z,56.45
2023-05-08T11:20:54.487Z,55.74
2023-05-08T11:23:22.949Z,56.15
2023-05-08T11:26:12.280Z,55.80
2023-05-08T11:28:41.243Z,55.48
2023-05-08T11:31:09.179Z,54.96
2023-05-08T11:33:41.276Z,55.11
2023-05-08T11:36:14.073Z,54.17
2023-05-08T11:38:43.665Z,54.09
2023-05-08T11:41:21.674Z,54.75
2023-05-08T11:44:10.496Z,54.94
2023-05-08T11:46:53.521Z,55.05
2023-05-08T11:49:27.116Z,54.58
2023-05-08T11:51:58.816Z,54.83
2023-05-08T11:54:29.334Z,54.31
2023-05-08T11:56:56.112Z,54.57
2023-05-08T11:59:22.754Z,54.68
2023-05-08T12:02:06.873Z,55.08
2023-05-08T12:04:43.468Z,55.80
2023-05-08T12:07:10.095Z,55.64
2023-05-08T12:09:38.391Z,55.74
2023-05-08T12:12:05.527Z,55.77
2023-05-08T12:14:34.702Z,55.17
2023-05-08T12:17:02.902Z,55.12
2023-05-08T12:19:29.752Z,55.03
2023-05-08T12:21:57.411Z,55.21
2023-05-08T12:24:26.302Z,55.38
2023-05-08T12:26:56.714Z,55.39
2023-05-08T12:29:24.271Z,55.06
2023-05-08T12:31:52.773Z,55.51
2023-05-08T12:34:20.448Z,55.87
2023-05-08T12:36:47.101Z,56.04
2023-05-08T12:39:18.027Z,56.42
2023-05-08T12:41:51.803Z,56.52
2023-05-08T12:44:20.670Z,56.44
2023-05-08T12:46:50.960Z,56.58
2023-05-08T12:49:31.610Z,56.69
2023-05-08T12:52:09.851Z,57.05
2023-05-08T12:54:38.332Z,56.91
2023-05-08T12:57:12.853Z,56.94
2023-05-08T12:59:40.978Z,57.05
2023-05-08T13:02:19.428Z,57.21
2023-05-08T13:04:46.869Z,56.91
2023-05-08T13:07:13.974Z,57.10
2023-05-08T13:09:56.759Z,56.87
2023-05-08T13:12:23.443Z,56.85
2023-05-08T13:14:50.108Z,56.82
2023-05-08T13:17:18.692Z,56.72
2023-05-08T13:19:45.371Z,56.95
2023-05-08T13:22:11.986Z,56.98
2023-05-08T13:24:38.733Z,57.08
2023-05-08T13:27:05.378Z,56.97
2023-05-08T13:29:32.032Z,56.96
2023-05-08T13:31:58.702Z,56.75
2023-05-08T13:34:25.739Z,56.67
2023-05-08T13:36:53.006Z,56.61
2023-05-08T13:39:19.730Z,56.33
2023-05-08T13:41:46.383Z,56.40
2023-05-08T13:44:12.999Z,56.28
2023-05-08T13:46:39.591Z,56.18
2023-05-08T13:49:06.200Z,56.07
2023-05-08T13:51:32.821Z,56.30
2023-05-08T13:53:59.522Z,56.10
2023-05-08T13:56:26.187Z,56.30
2023-05-08T13:58:52.934Z,56.27
2023-05-08T14:01:26.633Z,56.01
2023-05-08T14:03:55.218Z,56.48
2023-05-08T14:06:22.290Z,56.78
2023-05-08T14:08:51.425Z,56.68
2023-05-08T14:11:19.583Z,56.76
2023-05-08T14:13:46.227Z,56.83
2023-05-08T14:16:14.515Z,57.10
2023-05-08T14:18:41.243Z,57.21
2023-05-08T14:21:07.888Z,56.90
2023-05-08T14:23:35.783Z,56.83
2023-05-08T14:26:02.550Z,56.77
2023-05-08T14:28:29.147Z,56.74
2023-05-08T14:30:56.286Z,57.15
2023-05-08T14:33:23.020Z,57.06
2023-05-08T14:35:49.689Z,57.16
2023-05-08T14:38:16.321Z,57.40
2023-05-08T14:40:43.001Z,57.86
2023-05-08T14:43:09.643Z,57.64
2023-05-08T14:45:36.370Z,57.52
2023-05-08T14:48:03.109Z,57.38
2023-05-08T14:50:29.845Z,57.26
2023-05-08T14:52:56.639Z,57.67
2023-05-08T14:55:24.044Z,57.77
2023-05-08T14:57:50.901Z,57.70
2023-05-08T15:00:18.334Z,57.90
2023-05-08T15:02:45.382Z,57.98
2023-05-08T15:07:58.826Z,57.28
2023-05-08T15:10:25.476Z,57.45
2023-05-08T15:12:52.224Z,57.13
2023-05-08T15:15:18.876Z,57.00
2023-05-08T15:17:45.851Z,56.31
2023-05-08T15:20:12.582Z,56.07
2023-05-08T15:22:39.252Z,55.44
2023-05-08T15:25:06.817Z,55.99
2023-05-08T15:27:33.495Z,56.22
2023-05-08T15:30:00.278Z,56.52
2023-05-08T15:32:26.982Z,56.49
2023-05-08T15:34:53.655Z,56.68
2023-05-08T15:37:20.360Z,56.67
2023-05-08T15:39:47.077Z,57.08
2023-05-08T15:42:13.696Z,57.30
2023-05-08T15:47:09.945Z,57.68
2023-05-08T15:49:36.758Z,58.03
2023-05-08T15:52:03.637Z,58.39
2023-05-08T15:54:30.454Z,58.60
2023-05-08T15:56:57.137Z,58.82
2023-05-08T15:59:23.765Z,58.97
2023-05-08T16:01:52.087Z,58.89
2023-05-08T16:04:19.628Z,58.86
2023-05-08T16:06:46.343Z,58.77
2023-05-08T16:09:12.953Z,58.46
2023-05-08T16:11:39.608Z,58.42
2023-05-08T16:14:06.232Z,58.08
2023-05-08T16:16:33.054Z,58.31
2023-05-08T16:19:02.259Z,58.43
2023-05-08T16:21:28.891Z,58.75
2023-05-08T16:23:56.113Z,58.94
2023-05-08T16:26:23.457Z,59.06
2023-05-08T16:28:50.097Z,59.04
2023-05-08T16:31:17.184Z,58.70
2023-05-08T16:33:44.096Z,58.42
2023-05-08T16:36:10.821Z,58.72
2023-05-08T16:38:37.537Z,58.62
2023-05-08T16:41:06.235Z,58.36
2023-05-08T16:43:33.164Z,58.14
2023-05-08T16:45:59.884Z,58.03
2023-05-08T16:48:27.990Z,58.03
2023-05-08T16:50:54.663Z,57.98
2023-05-08T16:53:21.413Z,57.96
2023-05-08T16:55:48.119Z,57.96
2023-05-08T16:58:16.004Z,57.84
2023-05-08T17:00:42.671Z,58.01
2023-05-08T17:03:09.532Z,58.09
2023-05-08T17:05:37.186Z,58.12
2023-05-08T17:08:03.968Z,58.31
2023-05-08T17:10:30.700Z,58.51
2023-05-08T17:12:57.693Z,58.82
2023-05-08T17:15:24.473Z,58.88
2023-05-08T17:17:51.420Z,58.92
2023-05-08T17:20:21.313Z,59.01
2023-05-08T17:22:47.977Z,59.18
2023-05-08T17:25:14.762Z,59.20
2023-05-08T17:27:41.385Z,59.44
2023-05-08T17:30:12.178Z,59.51
2023-05-08T17:32:40.589Z,59.61
2023-05-08T17:35:07.634Z,60.16
2023-05-08T17:37:34.299Z,60.36
2023-05-08T17:40:00.950Z,60.38
2023-05-08T17:42:27.546Z,60.74
2023-05-08T17:44:54.150Z,61.03
2023-05-08T17:47:20.890Z,61.64
2023-05-08T17:49:47.564Z,62.70
2023-05-08T17:52:14.468Z,63.41
2023-05-08T17:54:41.096Z,63.99
2023-05-08T17:57:07.702Z,64.11
2023-05-08T17:59:34.362Z,64.27
2023-05-08T18:02:01.047Z,64.18
2023-05-08T18:04:27.793Z,64.21
2023-05-08T18:06:54.534Z,64.34
2023-05-08T18:09:21.221Z,64.23
2023-05-08T18:11:48.028Z,64.50
2023-05-08T18:14:14.690Z,64.55
2023-05-08T18:16:41.404Z,64.74
2023-05-08T18:19:08.142Z,65.01
2023-05-08T18:21:34.777Z,65.42
2023-05-08T18:24:01.420Z,65.56
2023-05-08T18:26:28.054Z,65.66
2023-05-08T18:28:54.665Z,65.63
2023-05-08T18:31:21.433Z,65.54
2023-05-08T18:33:48.070Z,65.52
2023-05-08T18:36:14.748Z,65.46
2023-05-08T18:38:41.936Z,65.86
2023-05-08T18:41:08.617Z,66.01
2023-05-08T18:43:35.328Z,66.24
2023-05-08T18:46:12.618Z,66.53
2023-05-08T18:48:42.054Z,66.68
2023-05-08T18:51:09.115Z,66.47
2023-05-08T18:53:40.686Z,66.18
2023-05-08T18:56:07.404Z,66.14
2023-05-08T18:58:34.086Z,66.04
2023-05-08T19:01:01.467Z,66.02
2023-05-08T19:03:28.490Z,65.87
2023-05-08T19:05:55.422Z,65.88
2023-05-08T19:08:22.039Z,66.04
2023-05-08T19:10:48.796Z,65.88
2023-05-08T19:13:15.718Z,66.10
2023-05-08T19:15:42.400Z,66.29
2023-05-08T19:18:09.258Z,66.40
2023-05-08T19:20:36.040Z,66.32
2023-05-08T19:23:02.643Z,66.03
2023-05-08T19:25:29.325Z,66.02
2023-05-08T19:27:57.508Z,65.82
2023-05-08T19:30:24.354Z,65.96
2023-05-08T19:32:50.977Z,66.00
2023-05-08T19:35:17.600Z,65.83
2023-05-08T19:37:44.258Z,65.79
2023-05-08T19:40:11.542Z,65.75
2023-05-08T19:42:38.444Z,65.70
2023-05-08T19:45:05.769Z,65.83
2023-05-08T19:47:33.669Z,65.89
2023-05-08T19:50:00.553Z,65.96
2023-05-08T19:52:33.466Z,66.01
2023-05-08T19:55:02.174Z,66.09
2023-05-08T19:57:30.908Z,66.00
2023-05-08T19:59:58.081Z,65.91
2023-05-08T20:02:24.971Z,65.88
2023-05-08T20:05:14.421Z,66.10
2023-05-08T20:07:45.243Z,66.31
2023-05-08T20:10:12.436Z,66.56
2023-05-08T20:12:39.488Z,66.70
2023-05-08T20:15:06.865Z,66.73
2023-05-08T20:17:33.596Z,66.61
2023-05-08T20:20:00.348Z,66.57
2023-05-08T20:22:28.956Z,66.52
2023-05-08T20:24:57.614Z,66.46
2023-05-08T20:27:24.894Z,66.53
2023-05-08T20:29:53.601Z,66.42
2023-05-08T20:32:20.880Z,66.68
2023-05-08T20:34:47.779Z,66.61
2023-05-08T20:37:16.089Z,66.80
2023-05-08T20:39:43.063Z,67.01
2023-05-08T20:42:09.648Z,67.00
2023-05-08T20:44:36.245Z,67.03
2023-05-08T20:47:02.843Z,67.01
2023-05-08T20:49:29.566Z,67.02
2023-05-08T20:51:56.306Z,66.86
2023-05-08T20:54:22.953Z,66.95
2023-05-08T20:56:49.720Z,67.31
2023-05-08T20:59:16.840Z,67.43
2023-05-08T21:01:43.605Z,67.58
2023-05-08T21:04:10.612Z,67.75
2023-05-08T21:06:37.209Z,67.90
2023-05-08T21:09:06.508Z,67.65
2023-05-08T21:11:33.729Z,67.56
2023-05-08T21:14:00.497Z,67.48
2023-05-08T21:16:27.250Z,67.87
2023-05-08T21:18:55.472Z,67.81
2023-05-08T21:21:24.279Z,67.89
2023-05-08T21:23:50.889Z,68.08
2023-05-08T21:26:19.914Z,68.10
2023-05-08T21:28:46.669Z,68.28
2023-05-08T21:31:13.291Z,68.50
2023-05-08T21:33:39.992Z,68.41
2023-05-08T21:36:06.747Z,68.34
2023-05-08T21:38:34.155Z,68.29
2023-05-08T21:41:08.441Z,68.46
2023-05-08T21:43:36.128Z,68.77
2023-05-08T21:46:07.371Z,68.95
2023-05-08T21:48:34.564Z,69.31
2023-05-08T21:51:01.946Z,69.17
2023-05-08T21:53:28.783Z,69.09
2023-05-08T21:55:55.479Z,68.90
2023-05-08T21:58:22.114Z,68.72
2023-05-08T22:00:48.893Z,68.64
2023-05-08T22:03:15.889Z,68.36
2023-05-08T22:05:42.675Z,67.98
2023-05-08T22:08:09.423Z,67.66
2023-05-08T22:10:39.503Z,67.63
2023-05-08T22:13:07.581Z,67.26
2023-05-08T22:15:34.582Z,67.13
2023-05-08T22:18:02.764Z,66.90
2023-05-08T22:20:30.407Z,66.93
2023-05-08T22:22:57.120Z,66.94
2023-05-08T22:25:25.273Z,66.92
2023-05-08T22:27:52.136Z,67.08
2023-05-08T22:30:18.723Z,67.26
2023-05-08T22:32:53.387Z,67.63
2023-05-08T22:35:22.556Z,67.71
2023-05-08T22:37:49.302Z,67.81
2023-05-08T22:40:16.098Z,67.75
2023-05-08T22:42:43.913Z,67.72
2023-05-08T22:45:12.370Z,67.40
2023-05-08T22:47:39.752Z,67.34
2023-05-08T22:50:08.655Z,67.52
2023-05-08T22:52:36.170Z,67.49
2023-05-08T22:55:06.639Z,67.48
2023-05-08T22:57:33.288Z,67.88
2023-05-08T22:59:59.955Z,67.76
2023-05-08T23:02:32.525Z,67.59
2023-05-08T23:05:00.019Z,67.50
2023-05-08T23:07:26.664Z,67.36
2023-05-08T23:09:53.302Z,67.51
2023-05-08T23:12:19.929Z,67.47
2023-05-08T23:14:46.564Z,67.54
2023-05-08T23:17:14.147Z,67.44
2023-05-08T23:19:42.258Z,67.48
2023-05-08T23:22:09.542Z,67.49
2023-05-08T23:24:36.620Z,67.85
2023-05-08T23:27:03.428Z,68.08
2023-05-08T23:29:33.337Z,68.07
2023-05-08T23:32:00.179Z,68.04
2023-05-08T23:34:26.820Z,68.03
2023-05-08T23:36:53.461Z,67.98
2023-05-08T23:39:20.100Z,67.79
2023-05-08T23:41:46.763Z,67.79
2023-05-08T23:44:14.585Z,67.91
2023-05-08T23:46:41.856Z,68.12
2023-05-08T23:49:08.674Z,68.18
2023-05-08T23:51:35.553Z,68.24
2023-05-08T23:54:02.293Z,68.51
2023-05-08T23:56:30.174Z,68.59
2023-05-08T23:58:57.175Z,68.44
